createdAt,value
2023-02-21T00:02:00.507Z,93.71
2023-02-21T00:04:46.277Z,93.57
2023-02-21T00:07:32.225Z,93.52
2023-02-21T00:10:18.358Z,93.48
2023-02-21T00:13:06.836Z,93.54
2023-02-21T00:15:52.432Z,93.56
2023-02-21T00:18:38.215Z,93.55
2023-02-21T00:21:24.482Z,93.50
2023-02-21T00:24:09.951Z,93.63
2023-02-21T00:26:55.921Z,93.95
2023-02-21T00:29:41.031Z,93.86
2023-02-21T00:32:26.384Z,94.45
2023-02-21T00:35:11.564Z,94.48
2023-02-21T00:37:57.938Z,94.63
2023-02-21T00:40:44.281Z,95.35
2023-02-21T00:43:29.405Z,95.18
2023-02-21T00:46:15.859Z,95.50
2023-02-21T00:49:01.300Z,95.47
2023-02-21T00:51:47.182Z,95.21
2023-02-21T00:54:32.865Z,95.06
2023-02-21T00:57:19.522Z,94.73
2023-02-21T01:00:04.902Z,94.41
2023-02-21T01:02:50.660Z,94.26
2023-02-21T01:05:35.884Z,94.14
2023-02-21T01:08:22.384Z,94.04
2023-02-21T01:11:07.887Z,94.08
2023-02-21T01:13:54.246Z,93.92
2023-02-21T01:16:42.737Z,93.99
2023-02-21T01:19:30.568Z,93.74
2023-02-21T01:22:15.819Z,93.56
2023-02-21T01:25:01.182Z,93.51
2023-02-21T01:27:50.567Z,93.46
2023-02-21T01:30:35.812Z,93.42
2023-02-21T01:33:23.594Z,93.46
2023-02-21T01:36:09.293Z,93.60
2023-02-21T01:38:55.364Z,93.47
2023-02-21T01:41:40.651Z,93.38
2023-02-21T01:44:54.872Z,93.32
2023-02-21T01:47:40.374Z,93.33
2023-02-21T01:50:33.000Z,93.42
2023-02-21T01:53:19.814Z,93.27
2023-02-21T01:56:05.224Z,93.29
2023-02-21T01:58:50.820Z,93.01
2023-02-21T02:01:48.134Z,92.65
2023-02-21T02:04:35.627Z,92.53
2023-02-21T02:07:21.323Z,92.43
2023-02-21T02:10:07.393Z,92.44
2023-02-21T02:12:40.423Z,92.40
2023-02-21T02:15:34.241Z,92.09
2023-02-21T02:18:33.718Z,91.64
2023-02-21T02:21:19.112Z,91.02
2023-02-21T02:24:11.617Z,90.88
2023-02-21T11:38:37.143Z,76.75
2023-02-21T11:41:16.914Z,76.92
2023-02-21T11:43:49.606Z,76.55
2023-02-21T11:46:31.695Z,76.50
2023-02-21T11:49:20.717Z,75.67
2023-02-21T11:51:58.066Z,75.03
2023-02-21T11:54:27.335Z,74.57
2023-02-21T11:57:30.613Z,73.85
2023-02-21T12:00:38.911Z,74.22
2023-02-21T12:03:35.541Z,73.34
2023-02-21T12:06:26.349Z,72.46
2023-02-21T12:09:12.845Z,72.35
2023-02-21T12:11:58.973Z,72.48
2023-02-21T12:14:55.223Z,72.37
2023-02-21T12:17:52.861Z,72.33
2023-02-21T12:20:42.745Z,72.44
2023-02-21T12:23:18.959Z,72.39
2023-02-21T12:25:59.116Z,72.30
2023-02-21T12:28:49.646Z,72.52
2023-02-21T12:31:34.668Z,72.39
2023-02-21T12:34:35.192Z,72.21
2023-02-21T12:37:20.050Z,72.70
2023-02-21T12:39:55.022Z,73.00
2023-02-21T12:42:21.747Z,72.90
2023-02-21T12:45:42.833Z,72.46
2023-02-21T12:48:17.500Z,72.41
2023-02-21T12:50:51.178Z,72.28
2023-02-21T12:53:30.562Z,71.13
2023-02-21T12:56:07.893Z,70.14
2023-02-21T12:58:40.272Z,69.65
2023-02-21T13:01:11.226Z,70.00
2023-02-21T13:03:49.518Z,70.03
2023-02-21T13:06:34.978Z,70.12
2023-02-21T13:09:10.931Z,70.05
2023-02-21T13:11:51.057Z,69.28
2023-02-21T13:14:21.738Z,69.53
2023-02-21T13:16:48.803Z,69.22
2023-02-21T13:19:15.339Z,68.57
2023-02-21T13:22:43.179Z,67.88
2023-02-21T13:25:40.830Z,67.77
2023-02-21T13:28:17.388Z,67.85
2023-02-21T13:30:49.734Z,68.44
2023-02-21T13:33:35.544Z,68.12
2023-02-21T13:36:02.482Z,68.43
2023-02-21T13:38:30.429Z,68.59
2023-02-21T13:41:10.304Z,68.39
2023-02-21T13:43:37.368Z,68.25
2023-02-21T13:46:29.213Z,67.51
2023-02-21T13:49:33.847Z,67.53
2023-02-21T13:52:19.250Z,66.69
2023-02-21T13:55:17.076Z,66.21
2023-02-21T13:57:56.230Z,66.34
2023-02-21T14:00:29.199Z,66.37
2023-02-21T14:02:59.921Z,66.57
2023-02-21T14:05:52.198Z,66.39
2023-02-21T14:08:35.200Z,66.32
2023-02-21T14:11:04.688Z,66.00
2023-02-21T14:13:44.879Z,66.10
2023-02-21T14:16:14.516Z,66.87
2023-02-21T14:18:48.400Z,66.55
2023-02-21T14:21:21.324Z,66.31
2023-02-21T14:24:00.075Z,66.21
2023-02-21T14:26:49.412Z,66.27
2023-02-21T14:29:30.982Z,66.57
2023-02-21T14:32:01.685Z,66.57
2023-02-21T14:34:47.250Z,66.37
2023-02-21T14:37:40.441Z,65.99
2023-02-21T14:40:10.319Z,65.73
2023-02-21T14:42:44.424Z,65.69
2023-02-21T15:18:26.497Z,73.56
2023-02-21T15:21:09.272Z,74.70
2023-02-21T15:23:42.349Z,75.58
2023-02-21T15:26:24.250Z,76.47
2023-02-21T15:29:08.549Z,77.04
2023-02-21T15:31:40.578Z,77.85
2023-02-21T15:34:32.738Z,78.30
2023-02-21T15:37:13.560Z,78.85
2023-02-21T15:39:45.991Z,79.47
2023-02-21T15:42:12.859Z,80.06
2023-02-21T15:44:43.272Z,80.83
2023-02-21T15:47:15.296Z,80.98
2023-02-21T15:49:47.948Z,81.46
2023-02-21T15:52:37.529Z,81.86
2023-02-21T15:55:19.769Z,82.12
2023-02-21T15:58:06.664Z,82.25
2023-02-21T16:00:34.314Z,82.47
2023-02-21T16:03:33.785Z,82.42
2023-02-21T16:06:22.627Z,82.75
2023-02-21T16:08:58.463Z,82.95
2023-02-21T16:11:26.898Z,83.12
2023-02-21T16:13:53.631Z,83.33
2023-02-21T16:16:20.754Z,83.34
2023-02-21T16:18:54.517Z,83.39
2023-02-21T16:21:26.919Z,83.49
2023-02-21T16:23:53.474Z,83.52
2023-02-21T16:26:27.340Z,83.90
2023-02-21T16:28:57.755Z,84.01
2023-02-21T16:31:26.970Z,83.98
2023-02-21T16:33:53.701Z,84.08
2023-02-21T16:36:27.683Z,84.11
2023-02-21T16:38:55.592Z,83.87
2023-02-21T16:41:22.634Z,83.94
2023-02-21T16:43:50.236Z,83.75
2023-02-21T16:46:23.596Z,83.82
2023-02-21T16:48:52.532Z,83.82
2023-02-21T16:51:20.006Z,84.14
2023-02-21T16:53:48.927Z,83.97
2023-02-21T16:56:15.857Z,84.01
2023-02-21T16:58:43.848Z,83.88
2023-02-21T17:01:12.820Z,83.59
2023-02-21T17:03:42.617Z,83.33
2023-02-21T17:06:19.747Z,83.26
2023-02-21T17:08:48.697Z,83.04
2023-02-21T17:11:18.752Z,82.84
2023-02-21T17:13:46.229Z,82.58
2023-02-21T17:16:13.135Z,82.36
2023-02-21T17:18:40.168Z,82.31
2023-02-21T17:21:06.946Z,82.31
2023-02-21T17:23:34.065Z,82.22
2023-02-21T17:26:01.160Z,82.18
2023-02-21T17:28:39.064Z,82.14
2023-02-21T17:31:06.257Z,82.10
2023-02-21T17:33:34.904Z,82.45
2023-02-21T17:36:01.972Z,82.50
2023-02-21T17:38:29.252Z,82.67
2023-02-21T17:40:56.063Z,82.84
2023-02-21T17:43:22.648Z,83.07
2023-02-21T17:45:49.340Z,83.27
2023-02-21T17:48:16.245Z,83.48
2023-02-21T17:50:44.115Z,83.69
2023-02-21T17:53:14.324Z,83.92
2023-02-21T17:55:41.959Z,83.93
2023-02-21T17:58:09.087Z,83.96
2023-02-21T18:00:36.306Z,83.84
2023-02-21T18:03:05.761Z,84.07
2023-02-21T18:05:36.780Z,83.93
2023-02-21T18:08:03.471Z,84.10
2023-02-21T18:10:30.550Z,83.95
2023-02-21T18:12:57.514Z,83.76
2023-02-21T18:15:26.804Z,83.84
2023-02-21T18:18:03.374Z,83.51
2023-02-21T18:20:31.125Z,83.42
2023-02-21T18:22:59.896Z,83.26
2023-02-21T18:25:26.585Z,83.12
2023-02-21T18:27:53.545Z,83.20
2023-02-21T18:30:21.281Z,83.22
2023-02-21T18:32:47.762Z,83.26
2023-02-21T18:35:15.300Z,83.20
2023-02-21T18:37:48.671Z,83.27
2023-02-21T18:40:16.346Z,83.15
2023-02-21T18:42:44.251Z,82.98
2023-02-21T18:45:11.185Z,82.92
2023-02-21T18:47:38.652Z,83.00
2023-02-21T18:50:06.058Z,82.94
2023-02-21T18:52:33.364Z,83.08
2023-02-21T18:55:02.957Z,83.07
2023-02-21T18:57:30.338Z,82.90
2023-02-21T18:59:57.272Z,82.81
2023-02-21T19:02:23.808Z,82.76
2023-02-21T19:04:50.507Z,82.62
2023-02-21T19:07:19.935Z,82.47
2023-02-21T19:09:52.202Z,82.40
2023-02-21T19:12:19.039Z,82.32
2023-02-21T19:14:49.903Z,82.28
2023-02-21T19:17:16.636Z,82.08
2023-02-21T19:19:43.186Z,81.87
2023-02-21T19:22:09.621Z,81.87
2023-02-21T19:24:36.450Z,81.67
2023-02-21T19:27:03.525Z,81.60
2023-02-21T19:29:31.393Z,81.33
2023-02-21T19:31:58.197Z,81.23
2023-02-21T19:34:25.014Z,81.25
2023-02-21T19:36:51.784Z,81.38
2023-02-21T19:39:19.064Z,81.19
2023-02-21T19:41:45.650Z,81.09
2023-02-21T19:44:14.586Z,81.17
2023-02-21T19:46:41.184Z,81.08
2023-02-21T19:49:21.359Z,81.26
2023-02-21T19:51:49.565Z,81.20
2023-02-21T19:54:17.431Z,81.27
2023-02-21T19:56:46.382Z,81.27
2023-02-21T19:59:13.199Z,81.20
2023-02-21T20:01:41.587Z,80.87
2023-02-21T20:04:09.602Z,80.97
2023-02-21T20:06:37.230Z,81.08
2023-02-21T20:09:05.596Z,81.06
2023-02-21T20:11:39.633Z,80.84
2023-02-21T20:14:07.957Z,80.87
2023-02-21T20:16:41.627Z,80.73
2023-02-21T20:19:08.997Z,80.56
2023-02-21T20:21:36.130Z,80.92
2023-02-21T20:24:06.423Z,80.77
2023-02-21T20:26:33.862Z,80.82
2023-02-21T20:29:01.988Z,80.95
2023-02-21T20:31:31.966Z,81.09
2023-02-21T20:34:02.306Z,81.01
2023-02-21T20:36:30.180Z,81.03
2023-02-21T20:38:57.095Z,81.01
2023-02-21T20:41:28.252Z,80.87
2023-02-21T20:43:54.741Z,80.83
2023-02-21T20:46:21.760Z,81.04
2023-02-21T20:48:48.652Z,81.14
2023-02-21T20:51:15.460Z,81.13
2023-02-21T20:53:45.428Z,81.20
2023-02-21T20:56:14.856Z,81.09
2023-02-21T20:58:41.473Z,81.37
2023-02-21T21:01:12.313Z,81.07
2023-02-21T21:03:39.661Z,80.72
2023-02-21T21:06:10.608Z,80.61
2023-02-21T21:08:37.071Z,80.34
2023-02-21T21:11:03.772Z,80.18
2023-02-21T21:13:33.324Z,80.07
2023-02-21T21:16:00.638Z,79.93
2023-02-21T21:18:27.139Z,79.56
2023-02-21T21:20:57.333Z,79.54
2023-02-21T21:23:25.298Z,79.36
2023-02-21T21:25:51.818Z,78.84
2023-02-21T21:28:18.964Z,78.53
2023-02-21T21:30:47.071Z,78.62
2023-02-21T21:33:18.201Z,78.60
2023-02-21T21:35:51.838Z,78.35
2023-02-21T21:38:25.093Z,78.31
2023-02-21T21:40:56.689Z,78.30
2023-02-21T21:43:24.238Z,78.10
2023-02-21T21:45:50.987Z,77.95
2023-02-21T21:48:17.974Z,78.06
2023-02-21T21:50:44.712Z,77.94
2023-02-21T21:53:14.314Z,77.58
2023-02-21T21:55:40.889Z,77.36
2023-02-21T21:58:13.194Z,77.24
2023-02-21T22:00:42.694Z,76.90
2023-02-21T22:03:13.440Z,76.91
2023-02-21T22:05:42.192Z,76.72
2023-02-21T22:08:11.939Z,76.75
2023-02-21T22:10:38.792Z,76.70
2023-02-21T22:13:12.912Z,76.83
2023-02-21T22:15:45.121Z,77.09
2023-02-21T22:18:12.325Z,77.31
2023-02-21T22:20:39.183Z,77.68
2023-02-21T22:23:05.902Z,77.92
2023-02-21T22:25:36.118Z,78.26
2023-02-21T22:28:09.778Z,78.43
2023-02-21T22:30:37.671Z,78.55
2023-02-21T22:33:05.500Z,78.63
2023-02-21T22:35:32.462Z,79.05
2023-02-21T22:38:04.282Z,79.36
2023-02-21T22:40:34.792Z,79.43
2023-02-21T22:43:04.837Z,79.51
2023-02-21T22:45:32.475Z,79.57
2023-02-21T22:47:59.203Z,79.81
2023-02-21T22:50:26.020Z,79.60
2023-02-21T22:52:54.224Z,79.80
2023-02-21T22:55:24.476Z,79.77
2023-02-21T22:57:52.633Z,79.74
2023-02-21T23:00:26.769Z,79.58
2023-02-21T23:02:54.089Z,79.52
2023-02-21T23:05:21.062Z,79.70
2023-02-21T23:07:52.749Z,79.47
2023-02-21T23:10:22.980Z,79.73
2023-02-21T23:12:54.873Z,79.73
2023-02-21T23:15:22.034Z,79.52
2023-02-21T23:17:52.429Z,79.69
2023-02-21T23:20:26.087Z,79.89
2023-02-21T23:22:53.480Z,79.63
2023-02-21T23:25:25.190Z,79.91
2023-02-21T23:27:55.890Z,79.63
2023-02-21T23:30:27.547Z,79.63
2023-02-21T23:32:55.061Z,79.72
2023-02-21T23:35:22.511Z,79.45
2023-02-21T23:37:52.591Z,79.30
2023-02-21T23:40:21.079Z,78.77
2023-02-21T23:42:51.875Z,78.85
2023-02-21T23:45:22.013Z,79.06
2023-02-21T23:47:50.398Z,78.97
2023-02-21T23:50:17.729Z,79.57
2023-02-21T23:52:46.245Z,79.47
2023-02-21T23:55:24.867Z,79.59
2023-02-21T23:57:52.188Z,80.34
